createdAt,value
2023-04-18T00:02:22.979Z,8.75
2023-04-18T00:04:50.448Z,8.75
2023-04-18T00:07:17.937Z,8.69
2023-04-18T00:09:44.897Z,8.75
2023-04-18T00:12:11.810Z,8.69
2023-04-18T00:14:38.501Z,8.63
2023-04-18T00:17:09.388Z,8.56
2023-04-18T00:19:43.228Z,8.44
2023-04-18T00:22:11.155Z,8.50
2023-04-18T00:24:37.778Z,8.56
2023-04-18T00:27:04.395Z,8.25
2023-04-18T00:29:31.778Z,8.44
2023-04-18T00:31:58.358Z,8.38
2023-04-18T00:34:24.973Z,8.38
2023-04-18T00:36:51.588Z,8.19
2023-04-18T00:39:18.178Z,8.25
2023-04-18T00:41:44.779Z,8.25
2023-04-18T00:44:11.556Z,8.19
2023-04-18T00:46:38.368Z,8.06
2023-04-18T00:49:05.764Z,8.13
2023-04-18T00:51:34.580Z,8.13
2023-04-18T00:54:03.522Z,8.06
2023-04-18T00:56:30.641Z,8.00
2023-04-18T00:58:57.894Z,8.13
2023-04-18T01:01:24.629Z,8.06
2023-04-18T01:03:51.650Z,7.88
2023-04-18T01:06:18.665Z,7.81
2023-04-18T01:08:45.924Z,7.81
2023-04-18T01:11:12.549Z,7.63
2023-04-18T01:13:39.154Z,7.63
2023-04-18T01:16:06.115Z,7.69
2023-04-18T01:18:35.072Z,7.56
2023-04-18T01:21:02.204Z,7.50
2023-04-18T01:23:28.882Z,7.50
2023-04-18T01:25:55.566Z,7.50
2023-04-18T01:28:22.806Z,7.38
2023-04-18T01:30:49.437Z,7.38
2023-04-18T01:33:16.302Z,7.31
2023-04-18T01:35:42.881Z,7.38
2023-04-18T01:38:09.490Z,7.31
2023-04-18T01:40:36.058Z,7.38
2023-04-18T01:43:02.646Z,7.13
2023-04-18T01:45:29.242Z,7.19
2023-04-18T01:47:55.843Z,7.25
2023-04-18T01:50:22.686Z,7.13
2023-04-18T01:52:49.264Z,7.19
2023-04-18T01:55:15.891Z,7.19
2023-04-18T01:57:42.536Z,7.13
2023-04-18T02:00:09.761Z,7.13
2023-04-18T02:02:36.525Z,7.13
2023-04-18T02:05:03.250Z,7.13
2023-04-18T02:07:29.953Z,7.13
2023-04-18T02:09:56.590Z,7.19
2023-04-18T02:12:23.179Z,7.13
2023-04-18T02:14:53.526Z,7.06
2023-04-18T02:17:23.845Z,7.06
2023-04-18T02:19:51.468Z,6.88
2023-04-18T02:22:18.584Z,6.94
2023-04-18T02:24:45.492Z,6.94
2023-04-18T02:27:12.472Z,6.88
2023-04-18T02:29:39.391Z,6.88
2023-04-18T02:32:06.438Z,6.88
2023-04-18T02:34:33.723Z,7.00
2023-04-18T02:37:00.502Z,7.00
2023-04-18T02:39:27.162Z,6.94
2023-04-18T02:41:53.832Z,7.00
2023-04-18T02:44:20.609Z,6.88
2023-04-18T02:46:47.284Z,6.94
2023-04-18T02:49:14.324Z,6.88
2023-04-18T02:51:40.955Z,6.56
2023-04-18T02:54:07.677Z,6.56
2023-04-18T02:56:39.749Z,6.56
2023-04-18T02:59:07.150Z,6.44
2023-04-18T03:01:33.874Z,6.44
2023-04-18T03:04:00.566Z,6.44
2023-04-18T03:06:27.291Z,6.44
2023-04-18T03:08:55.320Z,6.38
2023-04-18T03:11:22.434Z,6.38
2023-04-18T03:13:49.117Z,6.44
2023-04-18T03:16:16.539Z,6.38
2023-04-18T03:18:43.290Z,6.31
2023-04-18T03:21:09.972Z,6.38
2023-04-18T03:23:36.562Z,6.38
2023-04-18T03:26:05.532Z,6.38
2023-04-18T03:28:32.335Z,6.25
2023-04-18T03:30:59.511Z,6.25
2023-04-18T03:33:26.125Z,6.25
2023-04-18T03:35:52.780Z,6.13
2023-04-18T03:38:19.333Z,6.13
2023-04-18T03:40:46.284Z,6.06
2023-04-18T03:43:12.963Z,6.06
2023-04-18T03:45:39.705Z,6.06
2023-04-18T03:48:07.217Z,6.13
2023-04-18T03:50:33.886Z,5.94
2023-04-18T03:53:00.773Z,5.94
2023-04-18T03:55:27.850Z,5.94
2023-04-18T03:57:54.470Z,5.88
2023-04-18T04:00:21.147Z,5.94
2023-04-18T04:02:47.919Z,5.81
2023-04-18T04:05:14.705Z,5.88
2023-04-18T04:07:41.436Z,5.88
2023-04-18T04:10:08.322Z,5.94
2023-04-18T04:12:35.802Z,5.94
2023-04-18T04:15:02.455Z,6.00
2023-04-18T04:17:29.202Z,6.00
2023-04-18T04:19:56.023Z,5.94
2023-04-18T04:22:22.638Z,6.00
2023-04-18T04:24:49.261Z,6.06
2023-04-18T04:27:18.768Z,6.13
2023-04-18T04:29:45.436Z,6.06
2023-04-18T04:32:12.949Z,6.06
2023-04-18T04:34:41.319Z,6.13
2023-04-18T04:37:08.262Z,6.13
2023-04-18T04:39:34.900Z,6.19
2023-04-18T04:42:04.388Z,6.13
2023-04-18T04:44:31.196Z,6.13
2023-04-18T04:46:57.850Z,6.13
2023-04-18T04:49:24.534Z,6.13
2023-04-18T04:51:51.147Z,6.25
2023-04-18T04:54:17.744Z,6.31
2023-04-18T04:56:44.315Z,6.25
2023-04-18T04:59:11.121Z,6.25
2023-04-18T05:01:37.782Z,6.31
2023-04-18T05:04:04.701Z,6.31
2023-04-18T05:06:31.744Z,6.25
2023-04-18T05:09:00.872Z,6.38
2023-04-18T05:11:27.649Z,6.38
2023-04-18T05:13:54.260Z,6.25
2023-04-18T05:16:21.066Z,6.31
2023-04-18T05:18:47.706Z,6.38
2023-04-18T05:21:14.370Z,6.38
2023-04-18T05:23:40.990Z,6.38
2023-04-18T05:26:07.780Z,6.44
2023-04-18T05:28:34.403Z,6.44
2023-04-18T05:31:01.452Z,6.50
2023-04-18T05:33:29.343Z,6.50
2023-04-18T05:35:56.416Z,6.56
2023-04-18T05:38:23.017Z,6.56
2023-04-18T05:40:51.226Z,6.56
2023-04-18T05:43:19.651Z,6.50
2023-04-18T05:45:46.570Z,6.63
2023-04-18T05:48:13.816Z,6.63
2023-04-18T05:50:40.726Z,6.63
2023-04-18T05:53:07.318Z,6.69
2023-04-18T05:55:34.451Z,6.69
2023-04-18T05:58:01.127Z,6.75
2023-04-18T06:00:28.386Z,6.81
2023-04-18T06:02:55.271Z,6.81
2023-04-18T06:05:22.195Z,6.88
2023-04-18T06:07:49.320Z,6.94
2023-04-18T06:10:16.177Z,6.88
2023-04-18T06:12:42.892Z,6.94
2023-04-18T06:15:10.461Z,7.06
2023-04-18T06:17:37.189Z,7.00
2023-04-18T06:20:06.207Z,7.06
2023-04-18T06:22:36.236Z,7.06
2023-04-18T06:25:03.462Z,7.19
2023-04-18T06:27:31.848Z,7.25
2023-04-18T06:29:58.815Z,7.38
2023-04-18T06:32:25.715Z,7.44
2023-04-18T06:34:53.004Z,7.50
2023-04-18T06:37:20.144Z,7.63
2023-04-18T06:39:46.744Z,7.69
2023-04-18T06:42:13.392Z,7.75
2023-04-18T06:44:40.116Z,7.94
2023-04-18T06:47:06.865Z,7.94
2023-04-18T06:49:33.484Z,8.00
2023-04-18T06:52:00.079Z,8.00
2023-04-18T06:54:26.911Z,8.00
2023-04-18T06:56:53.871Z,8.00
2023-04-18T06:59:21.576Z,8.00
2023-04-18T07:01:48.890Z,8.06
2023-04-18T07:04:15.972Z,8.13
2023-04-18T07:06:43.225Z,8.19
2023-04-18T07:09:09.864Z,8.25
2023-04-18T07:11:36.660Z,8.31
2023-04-18T07:14:03.306Z,8.25
2023-04-18T07:16:29.922Z,8.31
2023-04-18T07:18:56.568Z,8.31
2023-04-18T07:21:23.907Z,8.38
2023-04-18T07:23:50.585Z,8.50
2023-04-18T07:26:17.301Z,8.44
2023-04-18T07:28:43.914Z,8.50
2023-04-18T07:31:11.680Z,8.63
2023-04-18T07:33:38.823Z,8.63
2023-04-18T07:36:06.119Z,8.69
2023-04-18T07:38:35.160Z,8.69
2023-04-18T07:41:02.664Z,8.69
2023-04-18T07:43:29.440Z,8.88
2023-04-18T07:45:56.115Z,8.94
2023-04-18T07:48:22.908Z,9.19
2023-04-18T07:50:49.543Z,9.50
2023-04-18T07:53:16.809Z,9.75
2023-04-18T07:55:43.531Z,9.75
2023-04-18T07:58:10.448Z,9.75
2023-04-18T08:00:39.152Z,9.94
2023-04-18T08:03:07.656Z,10.00
2023-04-18T08:05:34.583Z,10.31
2023-04-18T08:08:01.477Z,10.63
2023-04-18T08:10:28.459Z,10.63
2023-04-18T08:12:55.083Z,10.81
2023-04-18T08:15:21.650Z,11.13
2023-04-18T08:17:49.216Z,11.19
2023-04-18T08:20:15.945Z,11.13
2023-04-18T08:22:57.661Z,11.31
2023-04-18T08:25:29.767Z,11.69
2023-04-18T08:27:56.665Z,11.63
2023-04-18T08:30:23.647Z,11.69
2023-04-18T08:32:50.315Z,11.81
2023-04-18T08:35:17.025Z,11.38
2023-04-18T08:37:43.828Z,11.06
2023-04-18T08:40:10.724Z,11.06
2023-04-18T08:42:38.710Z,11.13
2023-04-18T08:45:06.994Z,11.25
2023-04-18T08:47:35.402Z,11.38
2023-04-18T08:50:02.273Z,11.44
2023-04-18T08:52:31.111Z,11.38
2023-04-18T08:54:57.848Z,11.63
2023-04-18T08:57:26.900Z,11.88
2023-04-18T08:59:54.361Z,11.69
2023-04-18T09:02:23.933Z,11.56
2023-04-18T09:04:53.740Z,11.63
2023-04-18T09:07:30.748Z,11.69
2023-04-18T09:09:58.204Z,12.13
2023-04-18T09:12:27.023Z,12.06
2023-04-18T09:15:10.541Z,11.75
2023-04-18T09:17:42.222Z,12.19
2023-04-18T09:20:11.264Z,12.56
2023-04-18T09:22:50.343Z,13.63
2023-04-18T09:25:36.021Z,13.88
2023-04-18T09:28:22.555Z,14.38
2023-04-18T09:30:52.318Z,14.25
2023-04-18T09:33:28.322Z,13.94
2023-04-18T09:35:57.139Z,14.00
2023-04-18T09:38:40.923Z,14.13
2023-04-18T09:41:12.396Z,14.25
2023-04-18T09:43:39.578Z,14.13
2023-04-18T09:46:07.915Z,14.00
2023-04-18T09:48:34.878Z,13.81
2023-04-18T09:51:06.922Z,13.63
2023-04-18T09:53:39.926Z,13.31
2023-04-18T09:56:12.660Z,13.13
2023-04-18T09:58:41.478Z,13.25
2023-04-18T10:01:08.629Z,13.31
2023-04-18T10:03:45.851Z,13.44
2023-04-18T10:06:16.486Z,13.56
2023-04-18T10:08:48.081Z,13.38
2023-04-18T10:11:15.640Z,13.13
2023-04-18T10:13:47.222Z,13.00
2023-04-18T10:16:14.767Z,13.13
2023-04-18T10:18:43.219Z,12.94
2023-04-18T10:21:09.847Z,12.81
2023-04-18T10:23:38.680Z,13.06
2023-04-18T10:26:07.069Z,13.19
2023-04-18T10:28:53.618Z,13.75
2023-04-18T10:31:28.447Z,14.13
2023-04-18T10:36:28.563Z,13.69
2023-04-18T10:39:23.234Z,13.44
2023-04-18T10:41:51.437Z,13.44
2023-04-18T10:44:21.800Z,13.69
2023-04-18T10:46:48.347Z,14.31
2023-04-18T10:49:25.816Z,14.44
2023-04-18T10:51:55.741Z,14.88
2023-04-18T10:54:49.461Z,14.88
2023-04-18T10:57:16.135Z,14.31
2023-04-18T10:59:51.513Z,14.44
2023-04-18T11:02:28.813Z,14.81
2023-04-18T11:05:04.616Z,14.50
2023-04-18T11:07:39.353Z,14.13
2023-04-18T11:10:07.795Z,13.94
2023-04-18T11:12:37.635Z,14.13
2023-04-18T11:15:11.619Z,14.25
2023-04-18T11:17:42.658Z,14.00
2023-04-18T11:20:14.363Z,13.75
2023-04-18T11:22:51.318Z,13.63
2023-04-18T11:25:20.155Z,13.81
2023-04-18T11:27:49.805Z,14.00
2023-04-18T11:30:16.475Z,13.88
2023-04-18T11:32:43.848Z,13.81
2023-04-18T11:35:13.549Z,13.63
2023-04-18T11:37:41.597Z,13.56
2023-04-18T11:40:12.776Z,13.50
2023-04-18T11:42:41.025Z,13.56
2023-04-18T11:45:15.034Z,13.56
2023-04-18T11:47:43.573Z,14.00
2023-04-18T11:50:12.664Z,14.38
2023-04-18T11:52:41.511Z,14.44
2023-04-18T11:55:23.979Z,14.25
2023-04-18T11:57:53.318Z,13.88
2023-04-18T12:00:34.516Z,13.94
2023-04-18T12:03:04.550Z,13.81
2023-04-18T12:05:33.648Z,14.13
2023-04-18T12:08:06.750Z,14.13
2023-04-18T12:10:33.607Z,13.94
2023-04-18T12:13:00.351Z,13.88
2023-04-18T12:15:28.847Z,13.75
2023-04-18T12:18:04.291Z,13.81
2023-04-18T12:20:39.583Z,13.75
2023-04-18T12:23:06.501Z,13.94
2023-04-18T12:25:33.556Z,13.94
2023-04-18T12:28:14.766Z,13.88
2023-04-18T12:30:42.573Z,13.94
2023-04-18T12:33:09.279Z,14.00
2023-04-18T12:35:36.075Z,13.94
2023-04-18T12:38:03.281Z,14.06
2023-04-18T12:40:30.317Z,14.00
2023-04-18T12:42:57.073Z,14.19
2023-04-18T12:45:24.453Z,14.13
2023-04-18T12:47:52.831Z,13.81
2023-04-18T12:50:25.260Z,14.00
2023-04-18T12:52:53.988Z,13.94
2023-04-18T12:55:22.706Z,13.88
2023-04-18T12:57:54.479Z,13.88
2023-04-18T13:00:23.587Z,13.81
2023-04-18T13:02:52.304Z,13.81
2023-04-18T13:05:21.627Z,13.75
2023-04-18T13:07:49.662Z,13.75
2023-04-18T13:10:21.600Z,13.56
2023-04-18T13:12:50.651Z,13.69
2023-04-18T13:15:17.541Z,13.50
2023-04-18T13:17:44.803Z,13.50
2023-04-18T13:20:15.034Z,13.56
2023-04-18T13:22:43.004Z,13.44
2023-04-18T13:25:10.767Z,13.44
2023-04-18T13:27:41.448Z,13.56
2023-04-18T13:30:11.285Z,13.75
2023-04-18T13:32:39.257Z,13.69
2023-04-18T13:35:08.377Z,13.63
2023-04-18T13:37:35.075Z,13.63
2023-04-18T13:40:01.681Z,13.56
2023-04-18T13:42:28.252Z,13.75
2023-04-18T13:44:54.830Z,13.94
2023-04-18T13:47:21.522Z,14.25
2023-04-18T13:49:48.147Z,14.31
2023-04-18T13:52:14.985Z,14.25
2023-04-18T13:54:41.894Z,14.19
2023-04-18T13:57:11.730Z,14.38
2023-04-18T13:59:40.555Z,14.63
2023-04-18T14:02:09.019Z,15.06
2023-04-18T14:04:36.852Z,15.69
2023-04-18T14:07:04.095Z,15.94
2023-04-18T14:09:30.638Z,15.38
2023-04-18T14:11:58.234Z,15.00
2023-04-18T14:14:25.360Z,14.94
2023-04-18T14:16:53.570Z,15.00
2023-04-18T14:19:20.451Z,15.56
2023-04-18T14:21:48.070Z,15.44
2023-04-18T14:24:14.690Z,15.31
2023-04-18T14:26:41.886Z,15.38
2023-04-18T14:29:08.562Z,15.31
2023-04-18T14:31:35.396Z,15.19
2023-04-18T14:34:02.062Z,15.00
2023-04-18T14:36:28.739Z,14.94
2023-04-18T14:38:55.378Z,15.25
2023-04-18T14:41:21.955Z,15.63
2023-04-18T14:43:48.739Z,15.38
2023-04-18T14:46:18.571Z,15.19
2023-04-18T14:48:48.532Z,15.75
2023-04-18T14:51:16.428Z,15.88
2023-04-18T14:53:43.536Z,16.13
2023-04-18T14:56:10.417Z,16.44
2023-04-18T14:58:37.012Z,16.31
2023-04-18T15:01:04.354Z,16.13
2023-04-18T15:03:31.300Z,15.94
2023-04-18T15:05:58.193Z,16.25
2023-04-18T15:08:24.859Z,16.38
2023-04-18T15:10:51.521Z,16.13
2023-04-18T15:13:18.163Z,16.25
2023-04-18T15:15:51.673Z,16.44
2023-04-18T15:18:18.314Z,16.38
2023-04-18T15:20:44.925Z,16.31
2023-04-18T15:23:13.613Z,15.88
2023-04-18T15:25:41.685Z,15.75
2023-04-18T15:28:08.729Z,15.75
2023-04-18T15:30:35.568Z,15.94
2023-04-18T15:33:02.469Z,16.31
2023-04-18T15:35:29.166Z,16.50
2023-04-18T15:37:56.553Z,16.06
2023-04-18T15:40:23.484Z,16.13
2023-04-18T15:42:50.962Z,15.75
2023-04-18T15:45:17.669Z,16.00
2023-04-18T15:47:44.329Z,15.94
2023-04-18T15:50:12.215Z,15.88
2023-04-18T15:52:40.894Z,15.63
2023-04-18T15:55:10.075Z,15.69
2023-04-18T15:57:36.704Z,15.44
2023-04-18T16:00:06.468Z,15.50
2023-04-18T16:02:33.207Z,15.56
2023-04-18T16:04:59.817Z,15.75
2023-04-18T16:07:26.393Z,15.31
2023-04-18T16:09:52.977Z,15.56
2023-04-18T16:12:19.579Z,15.63
2023-04-18T16:14:46.193Z,15.63
2023-04-18T16:17:12.788Z,15.38
2023-04-18T16:19:40.897Z,15.44
2023-04-18T16:22:07.854Z,15.44
2023-04-18T16:24:34.447Z,15.50
2023-04-18T16:27:01.076Z,15.25
2023-04-18T16:29:27.758Z,15.00
2023-04-18T16:31:54.515Z,14.88
2023-04-18T16:34:21.296Z,14.94
2023-04-18T16:36:50.679Z,15.00
2023-04-18T16:39:18.698Z,14.75
2023-04-18T16:41:45.266Z,14.81
2023-04-18T16:44:11.973Z,14.81
2023-04-18T16:46:38.778Z,14.81
2023-04-18T16:49:05.436Z,14.69
2023-04-18T16:51:32.135Z,14.69
2023-04-18T16:53:58.978Z,14.69
2023-04-18T16:56:25.572Z,14.56
2023-04-18T16:58:52.172Z,14.63
2023-04-18T17:01:18.828Z,14.63
2023-04-18T17:03:45.524Z,14.56
2023-04-18T17:06:12.188Z,14.50
2023-04-18T17:08:38.851Z,14.56
2023-04-18T17:11:05.572Z,14.50
2023-04-18T17:13:32.367Z,14.56
2023-04-18T17:15:59.096Z,14.44
2023-04-18T17:18:25.743Z,14.31
2023-04-18T17:20:52.879Z,14.19
2023-04-18T17:23:19.726Z,14.25
2023-04-18T17:25:46.407Z,14.25
2023-04-18T17:28:13.864Z,14.19
2023-04-18T17:30:43.749Z,14.19
2023-04-18T17:33:10.757Z,14.13
2023-04-18T17:35:40.874Z,14.19
2023-04-18T17:38:10.381Z,14.13
2023-04-18T17:40:37.212Z,14.19
2023-04-18T17:43:03.832Z,14.19
2023-04-18T17:45:30.553Z,14.38
2023-04-18T17:47:59.375Z,14.25
2023-04-18T17:50:26.088Z,14.00
2023-04-18T17:52:53.226Z,14.06
2023-04-18T17:55:20.015Z,14.06
2023-04-18T17:57:46.697Z,14.06
2023-04-18T18:00:14.622Z,14.13
2023-04-18T18:02:44.817Z,14.13
2023-04-18T18:05:14.672Z,13.88
2023-04-18T18:07:45.817Z,13.81
2023-04-18T18:10:14.863Z,13.75
2023-04-18T18:12:42.399Z,13.75
2023-04-18T18:15:09.427Z,13.69
2023-04-18T18:17:36.073Z,13.75
2023-04-18T18:20:02.787Z,13.69
2023-04-18T18:22:29.469Z,13.56
2023-04-18T18:24:56.514Z,13.56
2023-04-18T18:27:23.168Z,13.63
2023-04-18T18:29:50.369Z,13.50
2023-04-18T18:32:17.021Z,13.50
2023-04-18T18:34:43.712Z,13.44
2023-04-18T18:37:10.309Z,13.44
2023-04-18T18:39:37.329Z,13.44
2023-04-18T18:42:03.990Z,13.44
2023-04-18T18:44:30.728Z,13.38
2023-04-18T18:46:58.744Z,13.25
2023-04-18T18:49:26.551Z,13.19
2023-04-18T18:51:53.468Z,13.13
2023-04-18T18:54:20.291Z,13.06
2023-04-18T18:56:46.965Z,13.00
2023-04-18T18:59:13.730Z,13.00
2023-04-18T19:01:40.729Z,13.00
2023-04-18T19:04:07.837Z,12.88
2023-04-18T19:06:34.655Z,12.88
2023-04-18T19:09:01.336Z,12.88
2023-04-18T19:11:28.015Z,12.81
2023-04-18T19:13:54.658Z,12.88
2023-04-18T19:16:21.319Z,12.69
2023-04-18T19:18:49.225Z,12.56
2023-04-18T19:21:16.684Z,12.44
2023-04-18T19:23:43.474Z,12.44
2023-04-18T19:26:10.237Z,12.31
2023-04-18T19:28:36.840Z,12.25
2023-04-18T19:31:03.499Z,12.19
2023-04-18T19:33:30.288Z,12.19
2023-04-18T19:35:56.954Z,12.13
2023-04-18T19:38:23.862Z,12.13
2023-04-18T19:40:50.562Z,12.06
2023-04-18T19:43:17.215Z,12.00
2023-04-18T19:45:44.605Z,11.94
2023-04-18T19:48:11.771Z,11.94
2023-04-18T19:50:42.189Z,11.94
2023-04-18T19:53:09.132Z,11.94
2023-04-18T19:55:35.927Z,11.81
2023-04-18T19:58:04.987Z,11.88
2023-04-18T20:00:31.630Z,11.69
2023-04-18T20:02:59.046Z,11.63
2023-04-18T20:05:25.875Z,11.63
2023-04-18T20:07:52.602Z,11.50
2023-04-18T20:10:21.803Z,11.50
2023-04-18T20:12:49.954Z,11.56
2023-04-18T20:15:16.990Z,11.38
2023-04-18T20:17:43.678Z,11.44
2023-04-18T20:20:11.313Z,11.38
2023-04-18T20:22:40.217Z,11.38
2023-04-18T20:25:07.118Z,11.31
2023-04-18T20:27:33.713Z,11.25
2023-04-18T20:30:00.451Z,11.25
2023-04-18T20:32:27.130Z,11.19
2023-04-18T20:34:53.878Z,11.06
2023-04-18T20:37:20.681Z,11.06
2023-04-18T20:39:47.532Z,11.06
2023-04-18T20:42:14.292Z,11.00
2023-04-18T20:44:43.253Z,10.94
2023-04-18T20:47:09.968Z,10.88
2023-04-18T20:49:36.681Z,10.88
2023-04-18T20:52:03.554Z,10.81
2023-04-18T20:54:30.453Z,10.81
2023-04-18T20:56:57.040Z,10.75
2023-04-18T20:59:24.016Z,10.75
2023-04-18T21:01:50.655Z,10.69
2023-04-18T21:04:17.468Z,10.63
2023-04-18T21:06:44.504Z,10.63
2023-04-18T21:09:11.070Z,10.56
2023-04-18T21:11:37.716Z,10.56
2023-04-18T21:14:06.580Z,10.63
2023-04-18T21:16:33.539Z,10.56
2023-04-18T21:19:00.223Z,10.56
2023-04-18T21:21:27.210Z,10.56
2023-04-18T21:23:53.810Z,10.44
2023-04-18T21:26:20.975Z,10.44
2023-04-18T21:29:06.538Z,10.44
2023-04-18T21:31:34.911Z,10.44
2023-04-18T21:34:04.211Z,10.38
2023-04-18T21:36:31.496Z,10.31
2023-04-18T21:39:00.398Z,10.31
2023-04-18T21:41:27.592Z,10.25
2023-04-18T21:43:54.342Z,10.19
2023-04-18T21:46:21.090Z,10.25
2023-04-18T21:48:48.703Z,10.19
2023-04-18T21:51:17.313Z,10.19
2023-04-18T21:53:44.311Z,10.13
2023-04-18T21:56:11.462Z,10.13
2023-04-18T21:58:38.102Z,10.06
2023-04-18T22:01:04.840Z,10.06
2023-04-18T22:03:34.112Z,10.00
2023-04-18T22:06:01.390Z,10.00
2023-04-18T22:08:29.507Z,10.06
2023-04-18T22:10:58.251Z,10.00
2023-04-18T22:13:30.124Z,10.00
2023-04-18T22:15:58.206Z,9.94
2023-04-18T22:18:25.147Z,10.00
2023-04-18T22:20:53.551Z,9.94
2023-04-18T22:23:20.312Z,9.88
2023-04-18T22:25:46.912Z,9.81
2023-04-18T22:28:13.528Z,9.88
2023-04-18T22:30:40.183Z,9.75
2023-04-18T22:33:06.826Z,9.75
2023-04-18T22:35:33.396Z,9.75
2023-04-18T22:38:00.186Z,9.75
2023-04-18T22:40:27.000Z,9.75
2023-04-18T22:42:54.278Z,9.63
2023-04-18T22:45:21.097Z,9.69
2023-04-18T22:47:47.837Z,9.69
2023-04-18T22:50:14.972Z,9.63
2023-04-18T22:52:41.852Z,9.63
2023-04-18T22:55:09.355Z,9.63
2023-04-18T22:57:36.059Z,9.56
2023-04-18T23:00:04.769Z,9.63
2023-04-18T23:02:31.525Z,9.56
2023-04-18T23:04:59.693Z,9.50
2023-04-18T23:07:26.388Z,9.44
2023-04-18T23:09:52.987Z,9.44
2023-04-18T23:12:20.108Z,9.44
2023-04-18T23:14:48.261Z,9.44
2023-04-18T23:17:14.889Z,9.31
2023-04-18T23:19:41.537Z,9.38
2023-04-18T23:22:08.098Z,9.38
2023-04-18T23:24:34.708Z,9.31
2023-04-18T23:27:01.828Z,9.31
2023-04-18T23:29:28.461Z,9.31
2023-04-18T23:31:55.322Z,9.38
2023-04-18T23:34:22.036Z,9.38
2023-04-18T23:36:48.648Z,9.38
2023-04-18T23:39:17.443Z,9.38
2023-04-18T23:41:44.029Z,9.38
2023-04-18T23:44:10.654Z,9.38
2023-04-18T23:46:37.326Z,9.31
2023-04-18T23:49:03.954Z,9.38
2023-04-18T23:51:31.014Z,9.38
2023-04-18T23:53:57.603Z,9.38
2023-04-18T23:56:24.270Z,9.38
2023-04-18T23:58:50.886Z,9.38
